sensor_id;sensor_type;location;lat;lon;timestamp;pressure;altitude;pressure_sealevel;temperature;humidity
74529;BME280;63009;52.584;5.932;2022-11-20T00:01:07;101569.31;;;-3.58;91.74
74529;BME280;63009;52.584;5.932;2022-11-20T00:03:33;101582.28;;;-3.53;91.79
74529;BME280;63009;52.584;5.932;2022-11-20T00:06:03;101574.47;;;-3.61;91.97
74529;BME280;63009;52.584;5.932;2022-11-20T00:08:29;101571.03;;;-3.59;92.45
74529;BME280;63009;52.584;5.932;2022-11-20T00:10:54;101572.75;;;-3.59;92.76
74529;BME280;63009;52.584;5.932;2022-11-20T00:13:19;101572.78;;;-3.56;93.14
74529;BME280;63009;52.584;5.932;2022-11-20T00:15:44;101570.22;;;-3.54;93.38
74529;BME280;63009;52.584;5.932;2022-11-20T00:18:10;101563.31;;;-3.54;93.57
74529;BME280;63009;52.584;5.932;2022-11-20T00:20:35;101552.94;;;-3.60;93.64
74529;BME280;63009;52.584;5.932;2022-11-20T00:23:00;101546.94;;;-3.59;93.85
74529;BME280;63009;52.584;5.932;2022-11-20T00:25:25;101550.41;;;-3.55;93.36
74529;BME280;63009;52.584;5.932;2022-11-20T00:27:51;101552.97;;;-3.57;93.16
74529;BME280;63009;52.584;5.932;2022-11-20T00:30:16;101538.28;;;-3.61;93.43
74529;BME280;63009;52.584;5.932;2022-11-20T00:32:41;101550.38;;;-3.57;93.72
74529;BME280;63009;52.584;5.932;2022-11-20T00:35:07;101558.13;;;-3.57;93.82
74529;BME280;63009;52.584;5.932;2022-11-20T00:37:32;101551.25;;;-3.58;93.74
74529;BME280;63009;52.584;5.932;2022-11-20T00:39:57;101562.44;;;-3.58;93.56
74529;BME280;63009;52.584;5.932;2022-11-20T00:42:23;101553.81;;;-3.60;94.52
74529;BME280;63009;52.584;5.932;2022-11-20T00:44:48;101546.00;;;-3.66;94.15
74529;BME280;63009;52.584;5.932;2022-11-20T00:47:13;101558.13;;;-3.60;93.64
74529;BME280;63009;52.584;5.932;2022-11-20T00:49:38;101557.25;;;-3.61;93.71
74529;BME280;63009;52.584;5.932;2022-11-20T00:52:04;101552.91;;;-3.63;94.13
74529;BME280;63009;52.584;5.932;2022-11-20T00:54:29;101556.34;;;-3.64;93.59
74529;BME280;63009;52.584;5.932;2022-11-20T00:56:54;101547.69;;;-3.68;92.86
74529;BME280;63009;52.584;5.932;2022-11-20T00:59:20;101556.25;;;-3.70;92.92
74529;BME280;63009;52.584;5.932;2022-11-20T01:01:45;101551.06;;;-3.75;92.70
74529;BME280;63009;52.584;5.932;2022-11-20T01:04:10;101547.63;;;-3.74;93.08
74529;BME280;63009;52.584;5.932;2022-11-20T01:06:37;101545.06;;;-3.72;92.59
74529;BME280;63009;52.584;5.932;2022-11-20T01:09:07;101549.34;;;-3.74;92.94
74529;BME280;63009;52.584;5.932;2022-11-20T01:11:35;101540.63;;;-3.84;92.26
74529;BME280;63009;52.584;5.932;2022-11-20T01:14:02;101545.84;;;-3.79;92.44
74529;BME280;63009;52.584;5.932;2022-11-20T01:16:34;101553.59;;;-3.79;92.48
74529;BME280;63009;52.584;5.932;2022-11-20T01:19:01;101550.16;;;-3.80;92.38
74529;BME280;63009;52.584;5.932;2022-11-20T01:21:33;101538.91;;;-3.83;92.10
74529;BME280;63009;52.584;5.932;2022-11-20T01:23:59;101544.06;;;-3.83;92.67
74529;BME280;63009;52.584;5.932;2022-11-20T01:26:33;101531.94;;;-3.91;92.30
74529;BME280;63009;52.584;5.932;2022-11-20T01:28:59;101538.03;;;-3.84;93.98
74529;BME280;63009;52.584;5.932;2022-11-20T01:31:27;101515.59;;;-3.91;94.62
74529;BME280;63009;52.584;5.932;2022-11-20T01:33:55;101520.75;;;-3.91;94.71
74529;BME280;63009;52.584;5.932;2022-11-20T01:36:22;101520.75;;;-3.93;95.27
74529;BME280;63009;52.584;5.932;2022-11-20T01:38:52;101508.63;;;-3.95;93.80
74529;BME280;63009;52.584;5.932;2022-11-20T01:41:18;101506.88;;;-3.99;92.87
74529;BME280;63009;52.584;5.932;2022-11-20T01:44:04;101511.16;;;-4.00;92.47
74529;BME280;63009;52.584;5.932;2022-11-20T01:46:35;101510.31;;;-4.00;92.73
74529;BME280;63009;52.584;5.932;2022-11-20T01:49:04;101506.84;;;-4.02;92.59
74529;BME280;63009;52.584;5.932;2022-11-20T01:51:37;101505.13;;;-4.03;92.42
74529;BME280;63009;52.584;5.932;2022-11-20T01:54:06;101501.66;;;-4.05;92.58
74529;BME280;63009;52.584;5.932;2022-11-20T01:56:37;101505.09;;;-4.06;92.72
74529;BME280;63009;52.584;5.932;2022-11-20T01:59:05;101493.84;;;-4.08;92.96
74529;BME280;63009;52.584;5.932;2022-11-20T02:01:32;101506.81;;;-4.07;92.72
74529;BME280;63009;52.584;5.932;2022-11-20T02:03:58;101503.31;;;-4.09;93.12
74529;BME280;63009;52.584;5.932;2022-11-20T02:06:27;101492.94;;;-4.12;93.19
74529;BME280;63009;52.584;5.932;2022-11-20T02:08:54;101502.50;;;-4.08;94.06
74529;BME280;63009;52.584;5.932;2022-11-20T02:11:20;101495.56;;;-4.09;94.62
74529;BME280;63009;52.584;5.932;2022-11-20T02:13:45;101485.28;;;-4.07;94.81
74529;BME280;63009;52.584;5.932;2022-11-20T02:16:15;101486.19;;;-4.04;95.70
74529;BME280;63009;52.584;5.932;2022-11-20T02:18:42;101501.00;;;-3.84;97.65
74529;BME280;63009;52.584;5.932;2022-11-20T02:21:21;101474.31;;;-3.86;98.35
74529;BME280;63009;52.584;5.932;2022-11-20T02:26:26;101489.81;;;-3.85;98.13
74529;BME280;63009;52.584;5.932;2022-11-20T02:28:53;101488.06;;;-3.89;98.64
74529;BME280;63009;52.584;5.932;2022-11-20T02:31:19;101486.31;;;-3.92;98.06
74529;BME280;63009;52.584;5.932;2022-11-20T02:33:44;101488.91;;;-3.90;98.23
74529;BME280;63009;52.584;5.932;2022-11-20T02:36:11;101491.47;;;-3.93;98.29
74529;BME280;63009;52.584;5.932;2022-11-20T02:38:39;101490.66;;;-3.86;98.67
74529;BME280;63009;52.584;5.932;2022-11-20T02:41:05;101492.38;;;-3.86;98.55
74529;BME280;63009;52.584;5.932;2022-11-20T02:43:30;101484.63;;;-3.90;98.51
74529;BME280;63009;52.584;5.932;2022-11-20T02:45:55;101480.31;;;-3.91;98.37
74529;BME280;63009;52.584;5.932;2022-11-20T02:48:20;101490.63;;;-3.91;98.00
74529;BME280;63009;52.584;5.932;2022-11-20T02:50:46;101481.94;;;-3.96;97.45
74529;BME280;63009;52.584;5.932;2022-11-20T02:53:11;101482.00;;;-3.93;97.07
74529;BME280;63009;52.584;5.932;2022-11-20T02:55:36;101481.09;;;-3.95;96.77
74529;BME280;63009;52.584;5.932;2022-11-20T02:58:02;101478.53;;;-3.95;95.83
74529;BME280;63009;52.584;5.932;2022-11-20T03:00:27;101486.25;;;-3.96;95.95
74529;BME280;63009;52.584;5.932;2022-11-20T03:02:53;101478.50;;;-3.98;95.90
74529;BME280;63009;52.584;5.932;2022-11-20T03:05:18;101483.66;;;-3.98;95.65
74529;BME280;63009;52.584;5.932;2022-11-20T03:07:43;101476.75;;;-3.99;95.61
74529;BME280;63009;52.584;5.932;2022-11-20T03:10:09;101478.44;;;-4.04;94.71
74529;BME280;63009;52.584;5.932;2022-11-20T03:12:34;101469.81;;;-4.06;94.66
74529;BME280;63009;52.584;5.932;2022-11-20T03:14:59;101468.09;;;-4.05;93.69
74529;BME280;63009;52.584;5.932;2022-11-20T03:17:24;101460.34;;;-4.07;93.95
74529;BME280;63009;52.584;5.932;2022-11-20T03:19:50;101477.56;;;-4.06;93.56
74529;BME280;63009;52.584;5.932;2022-11-20T03:22:15;101468.03;;;-4.10;93.78
74529;BME280;63009;52.584;5.932;2022-11-20T03:24:40;101462.84;;;-4.13;93.36
74529;BME280;63009;52.584;5.932;2022-11-20T03:27:06;101462.84;;;-4.13;92.28
74529;BME280;63009;52.584;5.932;2022-11-20T03:29:31;101454.19;;;-4.16;92.74
74529;BME280;63009;52.584;5.932;2022-11-20T03:31:57;101443.84;;;-4.18;93.08
74529;BME280;63009;52.584;5.932;2022-11-20T03:34:22;101459.38;;;-4.15;93.72
74529;BME280;63009;52.584;5.932;2022-11-20T03:36:48;101450.75;;;-4.19;93.43
74529;BME280;63009;52.584;5.932;2022-11-20T03:39:13;101447.28;;;-4.19;92.35
74529;BME280;63009;52.584;5.932;2022-11-20T03:41:40;101439.53;;;-4.22;92.01
74529;BME280;63009;52.584;5.932;2022-11-20T03:44:09;101426.53;;;-4.28;92.63
74529;BME280;63009;52.584;5.932;2022-11-20T03:46:34;101419.63;;;-4.29;93.24
74529;BME280;63009;52.584;5.932;2022-11-20T03:49:00;101430.84;;;-4.26;93.55
74529;BME280;63009;52.584;5.932;2022-11-20T03:51:28;101417.91;;;-4.30;94.29
74529;BME280;63009;52.584;5.932;2022-11-20T03:53:55;101433.44;;;-4.26;94.19
74529;BME280;63009;52.584;5.932;2022-11-20T03:56:26;101418.81;;;-4.27;94.07
74529;BME280;63009;52.584;5.932;2022-11-20T03:58:52;101430.03;;;-4.23;94.21
74529;BME280;63009;52.584;5.932;2022-11-20T04:01:20;101435.19;;;-4.23;94.55
74529;BME280;63009;52.584;5.932;2022-11-20T04:03:46;101423.09;;;-4.27;94.18
74529;BME280;63009;52.584;5.932;2022-11-20T04:06:20;101420.53;;;-4.27;93.90
74529;BME280;63009;52.584;5.932;2022-11-20T04:08:46;101424.84;;;-4.26;92.99
74529;BME280;63009;52.584;5.932;2022-11-20T04:11:29;101431.72;;;-4.25;92.28
74529;BME280;63009;52.584;5.932;2022-11-20T04:13:57;101416.94;;;-4.38;91.29
74529;BME280;63009;52.584;5.932;2022-11-20T04:16:24;101432.41;;;-4.38;90.90
74529;BME280;63009;52.584;5.932;2022-11-20T04:18:55;101419.44;;;-4.47;92.01
74529;BME280;63009;52.584;5.932;2022-11-20T04:21:21;101421.13;;;-4.50;92.54
74529;BME280;63009;52.584;5.932;2022-11-20T04:23:48;101420.22;;;-4.52;93.67
74529;BME280;63009;52.584;5.932;2022-11-20T04:26:13;101419.47;;;-4.44;93.75
74529;BME280;63009;52.584;5.932;2022-11-20T04:28:39;101414.34;;;-4.41;94.20
74529;BME280;63009;52.584;5.932;2022-11-20T04:31:13;101417.75;;;-4.42;94.36
74529;BME280;63009;52.584;5.932;2022-11-20T04:33:39;101417.75;;;-4.42;93.90
74529;BME280;63009;52.584;5.932;2022-11-20T04:36:12;101415.19;;;-4.41;93.16
74529;BME280;63009;52.584;5.932;2022-11-20T04:38:38;101408.25;;;-4.46;92.41
74529;BME280;63009;52.584;5.932;2022-11-20T04:41:05;101399.66;;;-4.47;92.55
74529;BME280;63009;52.584;5.932;2022-11-20T04:43:31;101417.75;;;-4.42;92.90
74529;BME280;63009;52.584;5.932;2022-11-20T04:45:58;101416.91;;;-4.41;93.07
74529;BME280;63009;52.584;5.932;2022-11-20T04:48:24;101406.59;;;-4.41;92.48
74529;BME280;63009;52.584;5.932;2022-11-20T04:50:50;101403.13;;;-4.43;91.98
74529;BME280;63009;52.584;5.932;2022-11-20T04:53:16;101397.13;;;-4.44;91.71
74529;BME280;63009;52.584;5.932;2022-11-20T04:55:42;101391.06;;;-4.46;91.73
74529;BME280;63009;52.584;5.932;2022-11-20T04:58:07;101382.44;;;-4.50;91.71
74529;BME280;63009;52.584;5.932;2022-11-20T05:00:33;101381.53;;;-4.52;92.14
74529;BME280;63009;52.584;5.932;2022-11-20T05:02:58;101384.16;;;-4.50;91.65
74529;BME280;63009;52.584;5.932;2022-11-20T05:05:23;101386.75;;;-4.49;91.33
74529;BME280;63009;52.584;5.932;2022-11-20T05:07:48;101373.84;;;-4.50;91.78
74529;BME280;63009;52.584;5.932;2022-11-20T05:10:14;101372.91;;;-4.55;91.82
74529;BME280;63009;52.584;5.932;2022-11-20T05:12:39;101379.78;;;-4.56;91.32
74529;BME280;63009;52.584;5.932;2022-11-20T05:15:05;101376.31;;;-4.58;90.82
74529;BME280;63009;52.584;5.932;2022-11-20T05:17:30;101378.84;;;-4.64;90.89
74529;BME280;63009;52.584;5.932;2022-11-20T05:19:55;101388.31;;;-4.63;90.49
74529;BME280;63009;52.584;5.932;2022-11-20T05:22:21;101383.94;;;-4.65;90.59
74529;BME280;63009;52.584;5.932;2022-11-20T05:24:46;101387.38;;;-4.66;90.08
74529;BME280;63009;52.584;5.932;2022-11-20T05:27:11;101382.16;;;-4.71;89.87
74529;BME280;63009;52.584;5.932;2022-11-20T05:29:37;101385.59;;;-4.73;90.42
74529;BME280;63009;52.584;5.932;2022-11-20T05:32:02;101383.84;;;-4.74;90.54
74529;BME280;63009;52.584;5.932;2022-11-20T05:34:27;101371.72;;;-4.82;90.54
74529;BME280;63009;52.584;5.932;2022-11-20T05:36:52;101371.69;;;-4.85;91.14
74529;BME280;63009;52.584;5.932;2022-11-20T05:39:18;101379.47;;;-4.79;91.04
74529;BME280;63009;52.584;5.932;2022-11-20T05:41:43;101366.50;;;-4.86;91.90
74529;BME280;63009;52.584;5.932;2022-11-20T05:44:13;101370.84;;;-4.82;92.01
74529;BME280;63009;52.584;5.932;2022-11-20T05:46:38;101365.72;;;-4.79;91.99
74529;BME280;63009;52.584;5.932;2022-11-20T05:49:03;101366.59;;;-4.79;92.58
74529;BME280;63009;52.584;5.932;2022-11-20T05:51:29;101354.56;;;-4.80;93.34
74529;BME280;63009;52.584;5.932;2022-11-20T05:53:56;101362.34;;;-4.78;94.07
74529;BME280;63009;52.584;5.932;2022-11-20T05:56:22;101370.13;;;-4.72;94.12
74529;BME280;63009;52.584;5.932;2022-11-20T05:58:48;101368.44;;;-4.70;94.20
74529;BME280;63009;52.584;5.932;2022-11-20T06:01:18;101371.13;;;-4.61;94.54
74529;BME280;63009;52.584;5.932;2022-11-20T06:03:44;101359.09;;;-4.60;94.69
74529;BME280;63009;52.584;5.932;2022-11-20T06:06:13;101355.66;;;-4.61;94.49
74529;BME280;63009;52.584;5.932;2022-11-20T06:08:39;101345.22;;;-4.70;93.92
74529;BME280;63009;52.584;5.932;2022-11-20T06:11:09;101346.19;;;-4.63;93.97
74529;BME280;63009;52.584;5.932;2022-11-20T06:13:35;101353.88;;;-4.65;93.70
74529;BME280;63009;52.584;5.932;2022-11-20T06:16:01;101364.22;;;-4.63;93.92
74529;BME280;63009;52.584;5.932;2022-11-20T06:18:27;101363.41;;;-4.58;94.56
74529;BME280;63009;52.584;5.932;2022-11-20T06:21:20;101352.19;;;-4.63;93.98
74529;BME280;63009;52.584;5.932;2022-11-20T06:23:46;101360.03;;;-4.51;93.91
74529;BME280;63009;52.584;5.932;2022-11-20T06:26:17;101352.38;;;-4.46;94.21
74529;BME280;63009;52.584;5.932;2022-11-20T06:28:43;101354.09;;;-4.46;93.87
74529;BME280;63009;52.584;5.932;2022-11-20T06:31:11;101346.34;;;-4.50;94.34
74529;BME280;63009;52.584;5.932;2022-11-20T06:33:37;101341.19;;;-4.48;94.41
74529;BME280;63009;52.584;5.932;2022-11-20T06:36:03;101354.16;;;-4.40;94.62
74529;BME280;63009;52.584;5.932;2022-11-20T06:38:29;101350.81;;;-4.32;94.72
74529;BME280;63009;52.584;5.932;2022-11-20T06:40:55;101341.38;;;-4.31;94.96
74529;BME280;63009;52.584;5.932;2022-11-20T06:43:21;101352.66;;;-4.20;94.46
74529;BME280;63009;52.584;5.932;2022-11-20T06:45:51;101360.47;;;-4.09;94.74
74529;BME280;63009;52.584;5.932;2022-11-20T06:48:17;101361.34;;;-4.09;93.60
74529;BME280;63009;52.584;5.932;2022-11-20T06:50:42;101359.56;;;-4.16;93.32
74529;BME280;63009;52.584;5.932;2022-11-20T06:53:07;101352.69;;;-4.17;93.53
74529;BME280;63009;52.584;5.932;2022-11-20T06:55:32;101363.91;;;-4.13;93.25
74529;BME280;63009;52.584;5.932;2022-11-20T06:57:58;101359.59;;;-4.13;92.57
74529;BME280;63009;52.584;5.932;2022-11-20T07:00:23;101364.00;;;-4.03;91.65
74529;BME280;63009;52.584;5.932;2022-11-20T07:02:49;101351.97;;;-4.01;91.61
74529;BME280;63009;52.584;5.932;2022-11-20T07:05:15;101340.78;;;-4.03;91.18
74529;BME280;63009;52.584;5.932;2022-11-20T07:07:40;101365.84;;;-3.93;90.50
74529;BME280;63009;52.584;5.932;2022-11-20T07:10:06;101354.56;;;-3.98;90.88
74529;BME280;63009;52.584;5.932;2022-11-20T07:12:31;101358.13;;;-3.86;91.05
74529;BME280;63009;52.584;5.932;2022-11-20T07:14:56;101347.78;;;-3.88;90.53
74529;BME280;63009;52.584;5.932;2022-11-20T07:17:22;101356.38;;;-3.89;90.62
74529;BME280;63009;52.584;5.932;2022-11-20T07:19:47;101352.94;;;-3.90;91.39
74529;BME280;63009;52.584;5.932;2022-11-20T07:22:12;101345.19;;;-3.91;91.52
74529;BME280;63009;52.584;5.932;2022-11-20T07:24:38;101354.66;;;-3.90;91.63
74529;BME280;63009;52.584;5.932;2022-11-20T07:27:04;101353.81;;;-3.86;91.41
74529;BME280;63009;52.584;5.932;2022-11-20T07:29:29;101351.25;;;-3.83;91.25
74529;BME280;63009;52.584;5.932;2022-11-20T07:31:54;101351.22;;;-3.88;91.26
74529;BME280;63009;52.584;5.932;2022-11-20T07:34:21;101354.69;;;-3.84;91.20
74529;BME280;63009;52.584;5.932;2022-11-20T07:36:46;101346.16;;;-3.80;90.79
74529;BME280;63009;52.584;5.932;2022-11-20T07:39:11;101348.72;;;-3.80;91.07
74529;BME280;63009;52.584;5.932;2022-11-20T07:41:37;101333.19;;;-3.81;90.87
74529;BME280;63009;52.584;5.932;2022-11-20T07:44:02;101335.84;;;-3.74;91.23
74529;BME280;63009;52.584;5.932;2022-11-20T07:46:27;101339.34;;;-3.67;91.05
74529;BME280;63009;52.584;5.932;2022-11-20T07:48:52;101313.50;;;-3.69;90.73
74529;BME280;63009;52.584;5.932;2022-11-20T07:51:18;101323.16;;;-3.46;90.37
74529;BME280;63009;52.584;5.932;2022-11-20T07:53:43;101317.19;;;-3.38;90.30
74529;BME280;63009;52.584;5.932;2022-11-20T07:56:08;101320.72;;;-3.20;89.53
74529;BME280;63009;52.584;5.932;2022-11-20T07:58:34;101333.69;;;-3.11;88.89
74529;BME280;63009;52.584;5.932;2022-11-20T08:01:04;101326.81;;;-3.06;87.52
74529;BME280;63009;52.584;5.932;2022-11-20T08:03:30;101329.44;;;-3.02;87.60
74529;BME280;63009;52.584;5.932;2022-11-20T08:05:58;101319.97;;;-2.96;87.78
74529;BME280;63009;52.584;5.932;2022-11-20T08:08:24;101332.06;;;-2.89;87.91
74529;BME280;63009;52.584;5.932;2022-11-20T08:10:49;101334.72;;;-2.70;86.31
74529;BME280;63009;52.584;5.932;2022-11-20T08:13:15;101328.72;;;-2.65;85.76
74529;BME280;63009;52.584;5.932;2022-11-20T08:15:58;101326.16;;;-2.59;86.76
74529;BME280;63009;52.584;5.932;2022-11-20T08:18:24;101321.84;;;-2.54;86.62
74529;BME280;63009;52.584;5.932;2022-11-20T08:20:49;101312.34;;;-2.55;87.00
74529;BME280;63009;52.584;5.932;2022-11-20T08:23:14;101326.19;;;-2.43;86.10
74529;BME280;63009;52.584;5.932;2022-11-20T08:25:39;101304.63;;;-2.40;85.34
74529;BME280;63009;52.584;5.932;2022-11-20T08:28:07;101303.78;;;-2.36;85.48
74529;BME280;63009;52.584;5.932;2022-11-20T08:30:34;101314.13;;;-2.27;85.94
74529;BME280;63009;52.584;5.932;2022-11-20T08:33:05;101283.94;;;-2.31;85.38
74529;BME280;63009;52.584;5.932;2022-11-20T08:35:34;101297.78;;;-2.20;85.68
74529;BME280;63009;52.584;5.932;2022-11-20T08:38:01;101296.91;;;-2.16;85.08
74529;BME280;63009;52.584;5.932;2022-11-20T08:40:26;101294.31;;;-2.14;84.77
74529;BME280;63009;52.584;5.932;2022-11-20T08:42:51;101305.56;;;-2.07;85.39
74529;BME280;63009;52.584;5.932;2022-11-20T08:45:18;101298.63;;;-2.02;85.06
74529;BME280;63009;52.584;5.932;2022-11-20T08:47:44;101304.69;;;-1.91;83.77
74529;BME280;63009;52.584;5.932;2022-11-20T08:50:11;101296.06;;;-1.90;84.15
74529;BME280;63009;52.584;5.932;2022-11-20T08:52:37;101294.31;;;-1.87;84.35
74529;BME280;63009;52.584;5.932;2022-11-20T08:55:03;101294.31;;;-1.84;83.91
74529;BME280;63009;52.584;5.932;2022-11-20T08:57:31;101299.50;;;-1.79;83.05
74529;BME280;63009;52.584;5.932;2022-11-20T08:59:57;101291.72;;;-1.77;83.18
74529;BME280;63009;52.584;5.932;2022-11-20T09:02:22;101305.53;;;-1.65;82.73
74529;BME280;63009;52.584;5.932;2022-11-20T09:04:47;101302.06;;;-1.59;82.35
74529;BME280;63009;52.584;5.932;2022-11-20T09:07:13;101296.00;;;-1.57;82.30
74529;BME280;63009;52.584;5.932;2022-11-20T09:09:38;101302.06;;;-1.48;82.15
74529;BME280;63009;52.584;5.932;2022-11-20T09:12:03;101294.25;;;-1.44;82.63
74529;BME280;63009;52.584;5.932;2022-11-20T09:14:29;101302.91;;;-1.37;81.89
74529;BME280;63009;52.584;5.932;2022-11-20T09:16:56;101288.19;;;-1.29;83.30
74529;BME280;63009;52.584;5.932;2022-11-20T09:19:21;101283.00;;;-1.23;83.07
74529;BME280;63009;52.584;5.932;2022-11-20T09:21:46;101282.09;;;-1.14;79.91
74529;BME280;63009;52.584;5.932;2022-11-20T09:24:11;101280.34;;;-1.05;80.13
74529;BME280;63009;52.584;5.932;2022-11-20T09:26:37;101276.84;;;-0.95;80.27
74529;BME280;63009;52.584;5.932;2022-11-20T09:29:02;101268.16;;;-0.91;78.96
74529;BME280;63009;52.584;5.932;2022-11-20T09:31:27;101287.06;;;-0.64;79.39
74529;BME280;63009;52.584;5.932;2022-11-20T09:33:53;101273.09;;;-0.42;76.94
74529;BME280;63009;52.584;5.932;2022-11-20T09:36:18;101259.94;;;-0.20;77.38
74529;BME280;63009;52.584;5.932;2022-11-20T09:38:47;101267.53;;;0.06;78.15
74529;BME280;63009;52.584;5.932;2022-11-20T09:44:26;101255.75;;;0.62;77.86
74529;BME280;63009;52.584;5.932;2022-11-20T09:51:59;101250.31;;;1.47;69.48
74529;BME280;63009;52.584;5.932;2022-11-20T09:54:31;101222.41;;;1.54;69.51
74529;BME280;63009;52.584;5.932;2022-11-20T09:57:08;101229.88;;;1.77;69.39
74529;BME280;63009;52.584;5.932;2022-11-20T09:59:43;101233.44;;;1.73;68.96
74529;BME280;63009;52.584;5.932;2022-11-20T10:02:34;101228.28;;;1.70;68.01
74529;BME280;63009;52.584;5.932;2022-11-20T10:05:13;101245.69;;;1.65;67.95
74529;BME280;63009;52.584;5.932;2022-11-20T10:07:58;101235.44;;;1.56;67.85
74529;BME280;63009;52.584;5.932;2022-11-20T10:13:23;101225.22;;;1.42;69.57
74529;BME280;63009;52.584;5.932;2022-11-20T10:16:03;101228.81;;;1.33;69.94
74529;BME280;63009;52.584;5.932;2022-11-20T10:18:58;101219.44;;;1.22;70.25
74529;BME280;63009;52.584;5.932;2022-11-20T10:21:41;101225.63;;;1.14;69.91
74529;BME280;63009;52.584;5.932;2022-11-20T10:24:37;101219.66;;;1.05;71.03
74529;BME280;63009;52.584;5.932;2022-11-20T10:30:06;101216.31;;;0.95;71.67
74529;BME280;63009;52.584;5.932;2022-11-20T10:32:38;101202.56;;;0.87;71.99
74529;BME280;63009;52.584;5.932;2022-11-20T10:37:35;101199.84;;;0.93;71.62
74529;BME280;63009;52.584;5.932;2022-11-20T10:42:46;101186.78;;;0.96;70.13
74529;BME280;63009;52.584;5.932;2022-11-20T10:48:12;101190.13;;;1.07;70.61
74529;BME280;63009;52.584;5.932;2022-11-20T10:50:49;101188.31;;;1.11;69.83
74529;BME280;63009;52.584;5.932;2022-11-20T10:56:19;101186.34;;;1.30;68.95
74529;BME280;63009;52.584;5.932;2022-11-20T10:59:04;101167.97;;;1.37;68.84
74529;BME280;63009;52.584;5.932;2022-11-20T11:01:42;101184.13;;;1.61;68.40
74529;BME280;63009;52.584;5.932;2022-11-20T11:04:37;101192.63;;;1.72;69.06
74529;BME280;63009;52.584;5.932;2022-11-20T11:09:37;101165.38;;;1.90;67.37
74529;BME280;63009;52.584;5.932;2022-11-20T11:12:09;101168.75;;;1.98;67.72
74529;BME280;63009;52.584;5.932;2022-11-20T11:14:48;101169.25;;;2.17;69.25
74529;BME280;63009;52.584;5.932;2022-11-20T11:20:05;101158.44;;;2.36;70.16
74529;BME280;63009;52.584;5.932;2022-11-20T11:22:34;101145.19;;;2.47;70.10
74529;BME280;63009;52.584;5.932;2022-11-20T11:25:00;101143.31;;;2.52;69.71
74529;BME280;63009;52.584;5.932;2022-11-20T11:27:25;101149.19;;;2.63;70.58
74529;BME280;63009;52.584;5.932;2022-11-20T11:30:02;101135.38;;;2.58;72.37
74529;BME280;63009;52.584;5.932;2022-11-20T11:32:28;101138.72;;;2.65;72.47
74529;BME280;63009;52.584;5.932;2022-11-20T11:35:01;101122.31;;;2.60;71.97
74529;BME280;63009;52.584;5.932;2022-11-20T11:37:33;101113.69;;;2.56;73.44
74529;BME280;63009;52.584;5.932;2022-11-20T11:39:59;101112.09;;;2.49;74.19
74529;BME280;63009;52.584;5.932;2022-11-20T11:42:24;101103.38;;;2.50;74.04
74529;BME280;63009;52.584;5.932;2022-11-20T11:44:57;101105.91;;;2.53;74.47
74529;BME280;63009;52.584;5.932;2022-11-20T11:47:35;101108.50;;;2.55;75.50
74529;BME280;63009;52.584;5.932;2022-11-20T11:50:21;101109.34;;;2.57;76.58
74529;BME280;63009;52.584;5.932;2022-11-20T11:55:31;101116.13;;;2.64;78.90
74529;BME280;63009;52.584;5.932;2022-11-20T11:58:06;101121.50;;;2.58;79.56
74529;BME280;63009;52.584;5.932;2022-11-20T12:00:36;101107.44;;;2.63;79.12
74529;BME280;63009;52.584;5.932;2022-11-20T12:03:20;101095.22;;;2.65;79.65
74529;BME280;63009;52.584;5.932;2022-11-20T12:05:49;101096.94;;;2.66;79.44
74529;BME280;63009;52.584;5.932;2022-11-20T12:08:23;101100.31;;;2.72;79.01
74529;BME280;63009;52.584;5.932;2022-11-20T12:11:15;101095.88;;;2.75;79.63
74529;BME280;63009;52.584;5.932;2022-11-20T12:16:13;101089.72;;;2.78;79.99
74529;BME280;63009;52.584;5.932;2022-11-20T12:18:40;101065.66;;;2.65;80.15
74529;BME280;63009;52.584;5.932;2022-11-20T12:26:45;101049.03;;;2.71;81.44
74529;BME280;63009;52.584;5.932;2022-11-20T12:37:47;101053.94;;;2.84;81.91
74529;BME280;63009;52.584;5.932;2022-11-20T12:40:44;101032.50;;;2.70;82.21
74529;BME280;63009;52.584;5.932;2022-11-20T12:43:19;101039.22;;;2.80;82.53
74529;BME280;63009;52.584;5.932;2022-11-20T12:46:22;101022.66;;;2.83;82.89
74529;BME280;63009;52.584;5.932;2022-11-20T12:51:47;101018.31;;;2.82;82.54
74529;BME280;63009;52.584;5.932;2022-11-20T12:54:46;101018.50;;;2.74;82.83
74529;BME280;63009;52.584;5.932;2022-11-20T12:57:21;101016.75;;;2.75;82.84
74529;BME280;63009;52.584;5.932;2022-11-20T13:05:21;100997.22;;;2.54;83.95
74529;BME280;63009;52.584;5.932;2022-11-20T13:07:51;101003.34;;;2.51;83.36
74529;BME280;63009;52.584;5.932;2022-11-20T13:10:35;101010.41;;;2.48;83.89
74529;BME280;63009;52.584;5.932;2022-11-20T13:13:20;101000.81;;;2.48;83.56
74529;BME280;63009;52.584;5.932;2022-11-20T13:16:00;100979.91;;;2.50;82.72
74529;BME280;63009;52.584;5.932;2022-11-20T13:18:29;100980.69;;;2.53;81.94
74529;BME280;63009;52.584;5.932;2022-11-20T13:20:58;100977.22;;;2.54;81.51
74529;BME280;63009;52.584;5.932;2022-11-20T13:23:25;100963.38;;;2.51;81.25
74529;BME280;63009;52.584;5.932;2022-11-20T13:26:02;100975.38;;;2.58;80.96
74529;BME280;63009;52.584;5.932;2022-11-20T13:28:29;100969.38;;;2.54;80.70
74529;BME280;63009;52.584;5.932;2022-11-20T13:30:56;100979.88;;;2.51;80.66
74529;BME280;63009;52.584;5.932;2022-11-20T13:33:27;100963.44;;;2.48;80.44
74529;BME280;63009;52.584;5.932;2022-11-20T13:36:01;100954.06;;;2.39;81.34
74529;BME280;63009;52.584;5.932;2022-11-20T13:38:28;100953.16;;;2.42;81.39
74529;BME280;63009;52.584;5.932;2022-11-20T13:43:37;100946.22;;;2.41;81.75
74529;BME280;63009;52.584;5.932;2022-11-20T13:46:06;100939.34;;;2.36;82.05
74529;BME280;63009;52.584;5.932;2022-11-20T13:48:42;100941.78;;;2.44;82.22
74529;BME280;63009;52.584;5.932;2022-11-20T13:51:29;100944.38;;;2.46;82.87
74529;BME280;63009;52.584;5.932;2022-11-20T13:59:51;100926.19;;;2.43;83.91
74529;BME280;63009;52.584;5.932;2022-11-20T14:02:20;100926.06;;;2.47;82.54
74529;BME280;63009;52.584;5.932;2022-11-20T14:04:52;100929.56;;;2.46;81.95
74529;BME280;63009;52.584;5.932;2022-11-20T14:07:21;100928.63;;;2.49;82.08
74529;BME280;63009;52.584;5.932;2022-11-20T14:09:51;100921.81;;;2.43;82.63